sensor_id;sensor_type;location;lat;lon;timestamp;P1;durP1;ratioP1;P2;durP2;ratioP2
6442;SDS011;3254;47.372;8.512;2023-10-08T00:01:49;11.47;;;6.80;;
6442;SDS011;3254;47.372;8.512;2023-10-08T00:04:16;11.80;;;6.33;;
6442;SDS011;3254;47.372;8.512;2023-10-08T00:06:45;10.93;;;5.50;;
6442;SDS011;3254;47.372;8.512;2023-10-08T00:09:11;8.13;;;6.07;;
6442;SDS011;3254;47.372;8.512;2023-10-08T00:11:39;13.17;;;7.10;;
6442;SDS011;3254;47.372;8.512;2023-10-08T00:14:05;8.77;;;6.00;;
6442;SDS011;3254;47.372;8.512;2023-10-08T00:16:35;10.77;;;5.60;;
6442;SDS011;3254;47.372;8.512;2023-10-08T00:19:06;9.50;;;6.60;;
6442;SDS011;3254;47.372;8.512;2023-10-08T00:21:42;9.00;;;5.87;;
6442;SDS011;3254;47.372;8.512;2023-10-08T00:24:10;9.73;;;6.43;;
6442;SDS011;3254;47.372;8.512;2023-10-08T00:26:37;8.23;;;5.77;;
6442;SDS011;3254;47.372;8.512;2023-10-08T00:29:05;9.13;;;6.57;;
6442;SDS011;3254;47.372;8.512;2023-10-08T00:31:40;10.27;;;6.90;;
6442;SDS011;3254;47.372;8.512;2023-10-08T00:34:07;8.13;;;6.10;;
6442;SDS011;3254;47.372;8.512;2023-10-08T00:36:40;16.43;;;6.73;;
6442;SDS011;3254;47.372;8.512;2023-10-08T00:39:07;11.23;;;7.27;;
6442;SDS011;3254;47.372;8.512;2023-10-08T00:41:39;15.00;;;7.00;;
6442;SDS011;3254;47.372;8.512;2023-10-08T00:44:15;9.50;;;6.50;;
6442;SDS011;3254;47.372;8.512;2023-10-08T00:46:47;8.23;;;6.50;;
6442;SDS011;3254;47.372;8.512;2023-10-08T00:49:20;12.30;;;7.50;;
6442;SDS011;3254;47.372;8.512;2023-10-08T00:51:51;11.53;;;7.53;;
6442;SDS011;3254;47.372;8.512;2023-10-08T00:54:45;11.83;;;6.30;;
6442;SDS011;3254;47.372;8.512;2023-10-08T00:57:21;10.30;;;7.30;;
6442;SDS011;3254;47.372;8.512;2023-10-08T00:59:49;8.90;;;7.23;;
6442;SDS011;3254;47.372;8.512;2023-10-08T01:02:22;8.53;;;6.60;;
6442;SDS011;3254;47.372;8.512;2023-10-08T01:04:52;10.83;;;7.53;;
6442;SDS011;3254;47.372;8.512;2023-10-08T01:07:20;11.37;;;7.37;;
6442;SDS011;3254;47.372;8.512;2023-10-08T01:09:47;10.10;;;6.70;;
6442;SDS011;3254;47.372;8.512;2023-10-08T01:12:22;11.03;;;7.30;;
6442;SDS011;3254;47.372;8.512;2023-10-08T01:14:52;9.83;;;6.63;;
6442;SDS011;3254;47.372;8.512;2023-10-08T01:17:30;14.97;;;7.00;;
6442;SDS011;3254;47.372;8.512;2023-10-08T01:19:59;11.00;;;6.60;;
6442;SDS011;3254;47.372;8.512;2023-10-08T01:22:43;10.40;;;6.60;;
6442;SDS011;3254;47.372;8.512;2023-10-08T01:25:13;13.63;;;7.50;;
6442;SDS011;3254;47.372;8.512;2023-10-08T01:27:48;11.80;;;6.10;;
6442;SDS011;3254;47.372;8.512;2023-10-08T01:30:14;9.97;;;7.13;;
6442;SDS011;3254;47.372;8.512;2023-10-08T01:32:50;15.70;;;7.50;;
6442;SDS011;3254;47.372;8.512;2023-10-08T01:35:16;10.60;;;6.77;;
6442;SDS011;3254;47.372;8.512;2023-10-08T01:37:56;10.87;;;6.20;;
6442;SDS011;3254;47.372;8.512;2023-10-08T01:40:26;11.90;;;6.90;;
6442;SDS011;3254;47.372;8.512;2023-10-08T01:42:55;14.00;;;6.10;;
6442;SDS011;3254;47.372;8.512;2023-10-08T01:45:25;12.57;;;6.57;;
6442;SDS011;3254;47.372;8.512;2023-10-08T01:47:51;10.50;;;6.63;;
6442;SDS011;3254;47.372;8.512;2023-10-08T01:50:19;12.20;;;6.73;;
6442;SDS011;3254;47.372;8.512;2023-10-08T01:52:54;9.50;;;6.47;;
6442;SDS011;3254;47.372;8.512;2023-10-08T01:55:21;8.03;;;6.13;;
6442;SDS011;3254;47.372;8.512;2023-10-08T01:57:48;11.40;;;6.33;;
6442;SDS011;3254;47.372;8.512;2023-10-08T02:00:17;14.60;;;6.97;;
6442;SDS011;3254;47.372;8.512;2023-10-08T02:02:48;9.37;;;5.77;;
6442;SDS011;3254;47.372;8.512;2023-10-08T02:05:15;12.07;;;6.63;;
6442;SDS011;3254;47.372;8.512;2023-10-08T02:07:44;7.13;;;5.60;;
6442;SDS011;3254;47.372;8.512;2023-10-08T02:10:11;8.77;;;6.47;;
6442;SDS011;3254;47.372;8.512;2023-10-08T02:12:40;11.43;;;7.17;;
6442;SDS011;3254;47.372;8.512;2023-10-08T02:15:06;10.10;;;6.90;;
6442;SDS011;3254;47.372;8.512;2023-10-08T02:17:33;10.10;;;6.33;;
6442;SDS011;3254;47.372;8.512;2023-10-08T02:20:00;8.53;;;6.70;;
6442;SDS011;3254;47.372;8.512;2023-10-08T02:22:29;9.20;;;6.90;;
6442;SDS011;3254;47.372;8.512;2023-10-08T02:24:55;10.10;;;6.47;;
6442;SDS011;3254;47.372;8.512;2023-10-08T02:27:26;8.47;;;6.13;;
6442;SDS011;3254;47.372;8.512;2023-10-08T02:29:54;10.43;;;6.43;;
6442;SDS011;3254;47.372;8.512;2023-10-08T02:32:20;11.53;;;6.47;;
6442;SDS011;3254;47.372;8.512;2023-10-08T02:34:47;10.37;;;7.23;;
6442;SDS011;3254;47.372;8.512;2023-10-08T02:37:15;11.47;;;7.03;;
6442;SDS011;3254;47.372;8.512;2023-10-08T02:39:41;10.50;;;7.00;;
6442;SDS011;3254;47.372;8.512;2023-10-08T02:42:08;14.47;;;7.30;;
6442;SDS011;3254;47.372;8.512;2023-10-08T02:44:36;12.43;;;6.90;;
6442;SDS011;3254;47.372;8.512;2023-10-08T02:47:07;12.83;;;7.17;;
6442;SDS011;3254;47.372;8.512;2023-10-08T02:49:34;10.73;;;6.13;;
6442;SDS011;3254;47.372;8.512;2023-10-08T02:52:01;9.70;;;6.43;;
6442;SDS011;3254;47.372;8.512;2023-10-08T02:54:32;8.33;;;6.77;;
6442;SDS011;3254;47.372;8.512;2023-10-08T02:57:01;13.93;;;7.60;;
6442;SDS011;3254;47.372;8.512;2023-10-08T02:59:35;10.53;;;7.07;;
6442;SDS011;3254;47.372;8.512;2023-10-08T03:02:09;12.90;;;5.93;;
6442;SDS011;3254;47.372;8.512;2023-10-08T03:04:47;8.00;;;6.37;;
6442;SDS011;3254;47.372;8.512;2023-10-08T03:07:15;11.50;;;6.23;;
6442;SDS011;3254;47.372;8.512;2023-10-08T03:09:50;11.50;;;6.20;;
6442;SDS011;3254;47.372;8.512;2023-10-08T03:12:28;10.53;;;6.37;;
6442;SDS011;3254;47.372;8.512;2023-10-08T03:14:58;8.93;;;6.43;;
6442;SDS011;3254;47.372;8.512;2023-10-08T03:17:37;15.77;;;6.87;;
6442;SDS011;3254;47.372;8.512;2023-10-08T03:20:13;15.70;;;7.87;;
6442;SDS011;3254;47.372;8.512;2023-10-08T03:23:16;9.80;;;7.40;;
6442;SDS011;3254;47.372;8.512;2023-10-08T03:28:32;18.97;;;8.10;;
6442;SDS011;3254;47.372;8.512;2023-10-08T03:31:00;14.83;;;7.27;;
6442;SDS011;3254;47.372;8.512;2023-10-08T03:33:43;9.93;;;6.33;;
6442;SDS011;3254;47.372;8.512;2023-10-08T03:36:15;10.33;;;6.27;;
6442;SDS011;3254;47.372;8.512;2023-10-08T03:38:54;7.40;;;6.40;;
6442;SDS011;3254;47.372;8.512;2023-10-08T03:44:07;11.73;;;6.10;;
6442;SDS011;3254;47.372;8.512;2023-10-08T03:46:41;10.50;;;6.70;;
6442;SDS011;3254;47.372;8.512;2023-10-08T03:49:13;8.30;;;6.60;;
6442;SDS011;3254;47.372;8.512;2023-10-08T03:51:47;10.80;;;6.90;;
6442;SDS011;3254;47.372;8.512;2023-10-08T03:54:17;8.90;;;5.77;;
6442;SDS011;3254;47.372;8.512;2023-10-08T03:56:44;8.90;;;6.60;;
6442;SDS011;3254;47.372;8.512;2023-10-08T03:59:14;10.17;;;6.70;;
6442;SDS011;3254;47.372;8.512;2023-10-08T04:02:02;8.60;;;6.30;;
6442;SDS011;3254;47.372;8.512;2023-10-08T04:04:49;8.20;;;6.47;;
6442;SDS011;3254;47.372;8.512;2023-10-08T04:07:25;12.93;;;7.30;;
6442;SDS011;3254;47.372;8.512;2023-10-08T04:10:00;10.50;;;7.30;;
6442;SDS011;3254;47.372;8.512;2023-10-08T04:12:38;11.43;;;7.27;;
6442;SDS011;3254;47.372;8.512;2023-10-08T04:15:15;10.27;;;6.50;;
6442;SDS011;3254;47.372;8.512;2023-10-08T04:17:44;10.53;;;6.83;;
6442;SDS011;3254;47.372;8.512;2023-10-08T04:20:17;13.27;;;6.73;;
6442;SDS011;3254;47.372;8.512;2023-10-08T04:23:12;8.53;;;6.33;;
6442;SDS011;3254;47.372;8.512;2023-10-08T04:25:46;8.70;;;6.73;;
6442;SDS011;3254;47.372;8.512;2023-10-08T04:28:22;11.23;;;6.83;;
6442;SDS011;3254;47.372;8.512;2023-10-08T04:30:54;9.20;;;6.50;;
6442;SDS011;3254;47.372;8.512;2023-10-08T04:33:25;12.00;;;6.93;;
6442;SDS011;3254;47.372;8.512;2023-10-08T04:35:58;13.73;;;7.03;;
6442;SDS011;3254;47.372;8.512;2023-10-08T04:38:28;14.93;;;7.20;;
6442;SDS011;3254;47.372;8.512;2023-10-08T04:40:55;10.17;;;7.03;;
6442;SDS011;3254;47.372;8.512;2023-10-08T04:43:27;14.20;;;7.13;;
6442;SDS011;3254;47.372;8.512;2023-10-08T04:45:53;9.23;;;6.23;;
6442;SDS011;3254;47.372;8.512;2023-10-08T04:48:30;13.60;;;7.27;;
6442;SDS011;3254;47.372;8.512;2023-10-08T04:51:03;15.23;;;7.93;;
6442;SDS011;3254;47.372;8.512;2023-10-08T04:53:30;8.83;;;7.13;;
6442;SDS011;3254;47.372;8.512;2023-10-08T04:56:05;10.40;;;7.03;;
6442;SDS011;3254;47.372;8.512;2023-10-08T04:58:43;20.10;;;6.57;;
6442;SDS011;3254;47.372;8.512;2023-10-08T05:01:13;9.83;;;6.80;;
6442;SDS011;3254;47.372;8.512;2023-10-08T05:03:46;10.10;;;6.80;;
6442;SDS011;3254;47.372;8.512;2023-10-08T05:06:25;12.27;;;6.80;;
6442;SDS011;3254;47.372;8.512;2023-10-08T05:09:04;9.57;;;6.70;;
6442;SDS011;3254;47.372;8.512;2023-10-08T05:11:37;8.43;;;6.33;;
6442;SDS011;3254;47.372;8.512;2023-10-08T05:14:16;12.47;;;7.37;;
6442;SDS011;3254;47.372;8.512;2023-10-08T05:16:58;11.63;;;7.67;;
6442;SDS011;3254;47.372;8.512;2023-10-08T05:19:43;12.37;;;7.10;;
6442;SDS011;3254;47.372;8.512;2023-10-08T05:22:41;19.43;;;7.67;;
6442;SDS011;3254;47.372;8.512;2023-10-08T05:25:10;12.60;;;7.40;;
6442;SDS011;3254;47.372;8.512;2023-10-08T05:27:57;18.67;;;8.07;;
6442;SDS011;3254;47.372;8.512;2023-10-08T05:30:28;9.23;;;7.50;;
6442;SDS011;3254;47.372;8.512;2023-10-08T05:33:18;12.07;;;7.67;;
6442;SDS011;3254;47.372;8.512;2023-10-08T05:35:50;8.03;;;6.60;;
6442;SDS011;3254;47.372;8.512;2023-10-08T05:38:27;10.37;;;6.70;;
6442;SDS011;3254;47.372;8.512;2023-10-08T05:40:59;9.47;;;6.80;;
6442;SDS011;3254;47.372;8.512;2023-10-08T05:43:29;8.67;;;6.47;;
6442;SDS011;3254;47.372;8.512;2023-10-08T05:46:12;10.83;;;6.30;;
6442;SDS011;3254;47.372;8.512;2023-10-08T05:51:38;10.50;;;7.83;;
6442;SDS011;3254;47.372;8.512;2023-10-08T05:54:23;16.60;;;8.10;;
6442;SDS011;3254;47.372;8.512;2023-10-08T05:56:57;14.53;;;8.20;;
6442;SDS011;3254;47.372;8.512;2023-10-08T05:59:54;11.30;;;7.70;;
6442;SDS011;3254;47.372;8.512;2023-10-08T06:04:53;13.60;;;8.03;;
6442;SDS011;3254;47.372;8.512;2023-10-08T06:07:40;11.37;;;7.40;;
6442;SDS011;3254;47.372;8.512;2023-10-08T06:10:26;12.83;;;7.50;;
6442;SDS011;3254;47.372;8.512;2023-10-08T06:12:59;10.67;;;7.70;;
6442;SDS011;3254;47.372;8.512;2023-10-08T06:15:42;15.43;;;7.23;;
6442;SDS011;3254;47.372;8.512;2023-10-08T06:18:15;13.03;;;8.50;;
6442;SDS011;3254;47.372;8.512;2023-10-08T06:20:43;14.27;;;7.90;;
6442;SDS011;3254;47.372;8.512;2023-10-08T06:23:13;14.47;;;8.77;;
6442;SDS011;3254;47.372;8.512;2023-10-08T06:25:44;11.10;;;7.60;;
6442;SDS011;3254;47.372;8.512;2023-10-08T06:28:14;10.67;;;6.30;;
6442;SDS011;3254;47.372;8.512;2023-10-08T06:30:47;12.87;;;7.50;;
6442;SDS011;3254;47.372;8.512;2023-10-08T06:33:14;19.53;;;7.17;;
6442;SDS011;3254;47.372;8.512;2023-10-08T06:35:44;11.50;;;7.70;;
6442;SDS011;3254;47.372;8.512;2023-10-08T06:38:26;8.20;;;6.83;;
6442;SDS011;3254;47.372;8.512;2023-10-08T06:40:58;10.83;;;7.17;;
6442;SDS011;3254;47.372;8.512;2023-10-08T06:43:25;15.47;;;9.00;;
6442;SDS011;3254;47.372;8.512;2023-10-08T06:45:52;11.90;;;8.53;;
6442;SDS011;3254;47.372;8.512;2023-10-08T06:48:19;9.70;;;7.00;;
6442;SDS011;3254;47.372;8.512;2023-10-08T06:50:50;14.90;;;8.50;;
6442;SDS011;3254;47.372;8.512;2023-10-08T06:53:24;16.13;;;8.40;;
6442;SDS011;3254;47.372;8.512;2023-10-08T06:55:50;9.60;;;7.10;;
6442;SDS011;3254;47.372;8.512;2023-10-08T06:58:25;10.43;;;6.97;;
6442;SDS011;3254;47.372;8.512;2023-10-08T07:00:52;10.03;;;6.57;;
6442;SDS011;3254;47.372;8.512;2023-10-08T07:03:20;14.80;;;7.43;;
6442;SDS011;3254;47.372;8.512;2023-10-08T07:05:46;11.40;;;7.00;;
6442;SDS011;3254;47.372;8.512;2023-10-08T07:08:25;12.40;;;7.90;;
6442;SDS011;3254;47.372;8.512;2023-10-08T07:10:54;13.50;;;7.20;;
6442;SDS011;3254;47.372;8.512;2023-10-08T07:13:21;10.57;;;7.60;;
6442;SDS011;3254;47.372;8.512;2023-10-08T07:15:50;16.70;;;7.30;;
6442;SDS011;3254;47.372;8.512;2023-10-08T07:18:18;11.40;;;7.20;;
6442;SDS011;3254;47.372;8.512;2023-10-08T07:20:51;10.37;;;6.90;;
6442;SDS011;3254;47.372;8.512;2023-10-08T07:23:26;10.20;;;7.23;;
6442;SDS011;3254;47.372;8.512;2023-10-08T07:25:55;12.97;;;7.47;;
6442;SDS011;3254;47.372;8.512;2023-10-08T07:28:27;13.87;;;7.20;;
6442;SDS011;3254;47.372;8.512;2023-10-08T07:30:55;8.20;;;6.60;;
6442;SDS011;3254;47.372;8.512;2023-10-08T07:33:22;12.47;;;7.20;;
6442;SDS011;3254;47.372;8.512;2023-10-08T07:35:50;14.93;;;7.20;;
6442;SDS011;3254;47.372;8.512;2023-10-08T07:38:22;12.50;;;6.50;;
6442;SDS011;3254;47.372;8.512;2023-10-08T07:40:52;13.03;;;7.53;;
6442;SDS011;3254;47.372;8.512;2023-10-08T07:43:20;13.90;;;7.57;;
6442;SDS011;3254;47.372;8.512;2023-10-08T07:45:46;10.30;;;7.47;;
6442;SDS011;3254;47.372;8.512;2023-10-08T07:48:11;12.33;;;6.90;;
6442;SDS011;3254;47.372;8.512;2023-10-08T07:50:45;17.27;;;9.50;;
6442;SDS011;3254;47.372;8.512;2023-10-08T07:53:11;10.63;;;7.30;;
6442;SDS011;3254;47.372;8.512;2023-10-08T07:55:48;10.77;;;7.17;;
6442;SDS011;3254;47.372;8.512;2023-10-08T07:58:14;10.77;;;7.17;;
6442;SDS011;3254;47.372;8.512;2023-10-08T08:00:42;11.03;;;7.07;;
6442;SDS011;3254;47.372;8.512;2023-10-08T08:03:17;14.87;;;8.10;;
6442;SDS011;3254;47.372;8.512;2023-10-08T08:05:45;9.43;;;6.90;;
6442;SDS011;3254;47.372;8.512;2023-10-08T08:08:11;13.00;;;7.30;;
6442;SDS011;3254;47.372;8.512;2023-10-08T08:10:43;9.67;;;6.70;;
6442;SDS011;3254;47.372;8.512;2023-10-08T08:13:09;10.30;;;6.60;;
6442;SDS011;3254;47.372;8.512;2023-10-08T08:15:36;11.40;;;7.07;;
6442;SDS011;3254;47.372;8.512;2023-10-08T08:18:06;14.33;;;7.90;;
6442;SDS011;3254;47.372;8.512;2023-10-08T08:20:36;12.30;;;7.93;;
6442;SDS011;3254;47.372;8.512;2023-10-08T08:23:08;12.80;;;8.13;;
6442;SDS011;3254;47.372;8.512;2023-10-08T08:25:40;11.83;;;7.33;;
6442;SDS011;3254;47.372;8.512;2023-10-08T08:28:25;12.30;;;6.80;;
6442;SDS011;3254;47.372;8.512;2023-10-08T08:30:54;10.77;;;7.20;;
6442;SDS011;3254;47.372;8.512;2023-10-08T08:33:23;11.90;;;7.00;;
6442;SDS011;3254;47.372;8.512;2023-10-08T08:36:01;13.50;;;6.90;;
6442;SDS011;3254;47.372;8.512;2023-10-08T08:38:27;9.47;;;7.23;;
6442;SDS011;3254;47.372;8.512;2023-10-08T08:41:03;10.80;;;7.30;;
6442;SDS011;3254;47.372;8.512;2023-10-08T08:43:36;15.90;;;7.20;;
6442;SDS011;3254;47.372;8.512;2023-10-08T08:46:02;11.80;;;7.33;;
6442;SDS011;3254;47.372;8.512;2023-10-08T08:48:34;11.80;;;6.30;;
6442;SDS011;3254;47.372;8.512;2023-10-08T08:51:01;14.43;;;6.80;;
6442;SDS011;3254;47.372;8.512;2023-10-08T08:53:27;12.47;;;6.27;;
6442;SDS011;3254;47.372;8.512;2023-10-08T08:55:54;9.27;;;5.77;;
6442;SDS011;3254;47.372;8.512;2023-10-08T08:58:20;10.70;;;6.93;;
6442;SDS011;3254;47.372;8.512;2023-10-08T09:00:47;11.20;;;6.17;;
6442;SDS011;3254;47.372;8.512;2023-10-08T09:03:14;13.80;;;6.80;;
6442;SDS011;3254;47.372;8.512;2023-10-08T09:05:40;11.07;;;6.37;;
6442;SDS011;3254;47.372;8.512;2023-10-08T09:08:07;11.80;;;6.70;;
6442;SDS011;3254;47.372;8.512;2023-10-08T09:10:35;13.80;;;6.63;;
6442;SDS011;3254;47.372;8.512;2023-10-08T09:13:02;12.43;;;6.73;;
6442;SDS011;3254;47.372;8.512;2023-10-08T09:15:29;11.27;;;7.17;;
6442;SDS011;3254;47.372;8.512;2023-10-08T09:17:57;14.10;;;6.50;;
6442;SDS011;3254;47.372;8.512;2023-10-08T09:20:30;9.03;;;5.90;;
6442;SDS011;3254;47.372;8.512;2023-10-08T09:23:06;15.63;;;7.10;;
6442;SDS011;3254;47.372;8.512;2023-10-08T09:25:33;14.00;;;6.43;;
6442;SDS011;3254;47.372;8.512;2023-10-08T09:28:00;10.83;;;6.63;;
6442;SDS011;3254;47.372;8.512;2023-10-08T09:30:28;13.63;;;6.90;;
6442;SDS011;3254;47.372;8.512;2023-10-08T09:32:56;10.80;;;6.80;;
6442;SDS011;3254;47.372;8.512;2023-10-08T09:35:23;19.20;;;6.77;;
6442;SDS011;3254;47.372;8.512;2023-10-08T09:37:50;10.57;;;5.70;;
6442;SDS011;3254;47.372;8.512;2023-10-08T09:40:17;11.17;;;5.50;;
6442;SDS011;3254;47.372;8.512;2023-10-08T09:42:46;12.00;;;6.80;;
6442;SDS011;3254;47.372;8.512;2023-10-08T09:45:13;12.33;;;7.43;;
6442;SDS011;3254;47.372;8.512;2023-10-08T09:47:42;17.03;;;5.77;;
6442;SDS011;3254;47.372;8.512;2023-10-08T09:50:14;15.30;;;6.13;;
6442;SDS011;3254;47.372;8.512;2023-10-08T09:55:32;11.00;;;6.30;;
6442;SDS011;3254;47.372;8.512;2023-10-08T09:57:58;15.03;;;6.70;;
6442;SDS011;3254;47.372;8.512;2023-10-08T10:00:25;14.47;;;7.63;;
6442;SDS011;3254;47.372;8.512;2023-10-08T10:02:58;10.87;;;5.77;;
6442;SDS011;3254;47.372;8.512;2023-10-08T10:05:35;11.47;;;5.70;;
6442;SDS011;3254;47.372;8.512;2023-10-08T10:08:03;18.20;;;6.53;;
6442;SDS011;3254;47.372;8.512;2023-10-08T10:10:31;11.10;;;5.60;;
6442;SDS011;3254;47.372;8.512;2023-10-08T10:13:03;14.20;;;5.70;;
6442;SDS011;3254;47.372;8.512;2023-10-08T10:15:33;11.67;;;5.47;;
6442;SDS011;3254;47.372;8.512;2023-10-08T10:18:09;9.97;;;5.80;;
6442;SDS011;3254;47.372;8.512;2023-10-08T10:21:10;17.20;;;5.00;;
6442;SDS011;3254;47.372;8.512;2023-10-08T10:23:41;13.80;;;5.17;;
6442;SDS011;3254;47.372;8.512;2023-10-08T10:31:58;14.80;;;6.00;;
6442;SDS011;3254;47.372;8.512;2023-10-08T10:34:28;11.80;;;5.13;;
6442;SDS011;3254;47.372;8.512;2023-10-08T10:36:57;9.73;;;5.40;;
6442;SDS011;3254;47.372;8.512;2023-10-08T10:39:52;13.17;;;5.97;;
6442;SDS011;3254;47.372;8.512;2023-10-08T10:42:20;12.03;;;5.70;;
6442;SDS011;3254;47.372;8.512;2023-10-08T10:44:47;16.97;;;5.50;;
6442;SDS011;3254;47.372;8.512;2023-10-08T10:47:14;14.40;;;5.30;;
6442;SDS011;3254;47.372;8.512;2023-10-08T10:49:41;11.27;;;5.77;;
6442;SDS011;3254;47.372;8.512;2023-10-08T10:52:41;11.40;;;5.50;;
6442;SDS011;3254;47.372;8.512;2023-10-08T10:55:11;9.17;;;5.30;;
6442;SDS011;3254;47.372;8.512;2023-10-08T10:57:46;13.67;;;5.30;;
6442;SDS011;3254;47.372;8.512;2023-10-08T11:00:29;17.00;;;5.50;;
6442;SDS011;3254;47.372;8.512;2023-10-08T11:03:03;13.40;;;5.50;;
6442;SDS011;3254;47.372;8.512;2023-10-08T11:05:51;14.63;;;5.70;;
6442;SDS011;3254;47.372;8.512;2023-10-08T11:08:24;15.27;;;5.23;;
6442;SDS011;3254;47.372;8.512;2023-10-08T11:10:52;15.97;;;6.10;;
6442;SDS011;3254;47.372;8.512;2023-10-08T11:13:23;14.30;;;6.03;;
6442;SDS011;3254;47.372;8.512;2023-10-08T11:16:01;10.33;;;4.90;;
6442;SDS011;3254;47.372;8.512;2023-10-08T11:18:30;21.17;;;6.03;;
6442;SDS011;3254;47.372;8.512;2023-10-08T11:21:05;14.03;;;5.27;;
6442;SDS011;3254;47.372;8.512;2023-10-08T11:23:47;9.83;;;5.53;;
6442;SDS011;3254;47.372;8.512;2023-10-08T11:26:36;13.77;;;5.77;;
6442;SDS011;3254;47.372;8.512;2023-10-08T11:29:04;14.53;;;5.60;;
6442;SDS011;3254;47.372;8.512;2023-10-08T11:31:39;10.50;;;4.93;;
6442;SDS011;3254;47.372;8.512;2023-10-08T11:34:05;15.13;;;6.13;;
6442;SDS011;3254;47.372;8.512;2023-10-08T11:36:35;14.87;;;5.60;;
6442;SDS011;3254;47.372;8.512;2023-10-08T11:39:13;21.07;;;5.50;;
6442;SDS011;3254;47.372;8.512;2023-10-08T11:41:59;15.73;;;5.17;;
6442;SDS011;3254;47.372;8.512;2023-10-08T11:44:32;15.43;;;5.77;;
6442;SDS011;3254;47.372;8.512;2023-10-08T11:47:02;15.80;;;6.53;;
6442;SDS011;3254;47.372;8.512;2023-10-08T11:49:39;13.70;;;5.10;;
6442;SDS011;3254;47.372;8.512;2023-10-08T11:52:34;19.30;;;5.47;;
6442;SDS011;3254;47.372;8.512;2023-10-08T11:55:06;13.30;;;5.20;;
6442;SDS011;3254;47.372;8.512;2023-10-08T11:57:43;13.97;;;5.17;;
6442;SDS011;3254;47.372;8.512;2023-10-08T12:00:19;16.37;;;5.60;;
6442;SDS011;3254;47.372;8.512;2023-10-08T12:02:48;12.83;;;5.20;;
6442;SDS011;3254;47.372;8.512;2023-10-08T12:05:14;28.03;;;5.57;;
6442;SDS011;3254;47.372;8.512;2023-10-08T12:07:48;18.87;;;5.67;;
6442;SDS011;3254;47.372;8.512;2023-10-08T12:10:23;16.47;;;5.47;;
6442;SDS011;3254;47.372;8.512;2023-10-08T12:15:18;11.13;;;5.33;;
6442;SDS011;3254;47.372;8.512;2023-10-08T12:17:46;13.20;;;5.60;;
6442;SDS011;3254;47.372;8.512;2023-10-08T12:20:37;22.90;;;5.50;;
6442;SDS011;3254;47.372;8.512;2023-10-08T12:23:08;10.60;;;5.43;;
6442;SDS011;3254;47.372;8.512;2023-10-08T12:25:38;15.97;;;4.80;;
6442;SDS011;3254;47.372;8.512;2023-10-08T12:28:05;9.17;;;5.10;;
6442;SDS011;3254;47.372;8.512;2023-10-08T12:30:32;15.70;;;4.53;;
6442;SDS011;3254;47.372;8.512;2023-10-08T12:33:06;11.10;;;5.60;;
6442;SDS011;3254;47.372;8.512;2023-10-08T12:35:32;16.40;;;5.17;;
6442;SDS011;3254;47.372;8.512;2023-10-08T12:37:58;9.90;;;5.20;;
6442;SDS011;3254;47.372;8.512;2023-10-08T12:40:23;13.67;;;5.00;;
6442;SDS011;3254;47.372;8.512;2023-10-08T12:42:52;14.33;;;5.20;;
6442;SDS011;3254;47.372;8.512;2023-10-08T12:45:18;14.67;;;5.17;;
6442;SDS011;3254;47.372;8.512;2023-10-08T12:47:49;22.70;;;10.10;;
6442;SDS011;3254;47.372;8.512;2023-10-08T12:50:16;6.87;;;4.83;;
6442;SDS011;3254;47.372;8.512;2023-10-08T12:52:48;16.10;;;4.80;;
6442;SDS011;3254;47.372;8.512;2023-10-08T12:55:21;14.20;;;4.93;;
6442;SDS011;3254;47.372;8.512;2023-10-08T12:57:51;18.00;;;5.53;;
6442;SDS011;3254;47.372;8.512;2023-10-08T13:00:23;11.63;;;4.67;;
6442;SDS011;3254;47.372;8.512;2023-10-08T13:02:51;18.43;;;5.50;;
6442;SDS011;3254;47.372;8.512;2023-10-08T13:05:21;14.83;;;5.00;;
6442;SDS011;3254;47.372;8.512;2023-10-08T13:07:53;13.87;;;5.07;;
6442;SDS011;3254;47.372;8.512;2023-10-08T13:10:22;9.53;;;4.77;;
6442;SDS011;3254;47.372;8.512;2023-10-08T13:12:50;10.80;;;4.63;;
6442;SDS011;3254;47.372;8.512;2023-10-08T13:15:16;13.43;;;5.00;;
6442;SDS011;3254;47.372;8.512;2023-10-08T13:17:42;13.17;;;5.00;;
6442;SDS011;3254;47.372;8.512;2023-10-08T13:20:10;17.63;;;5.33;;
6442;SDS011;3254;47.372;8.512;2023-10-08T13:22:40;13.37;;;5.30;;
6442;SDS011;3254;47.372;8.512;2023-10-08T13:25:08;14.30;;;5.33;;
6442;SDS011;3254;47.372;8.512;2023-10-08T13:27:34;12.67;;;4.70;;
6442;SDS011;3254;47.372;8.512;2023-10-08T13:30:05;11.40;;;5.30;;
6442;SDS011;3254;47.372;8.512;2023-10-08T13:32:33;11.50;;;5.07;;
6442;SDS011;3254;47.372;8.512;2023-10-08T13:35:00;12.70;;;5.00;;
6442;SDS011;3254;47.372;8.512;2023-10-08T13:37:26;13.73;;;5.10;;
6442;SDS011;3254;47.372;8.512;2023-10-08T13:39:53;11.60;;;5.20;;
6442;SDS011;3254;47.372;8.512;2023-10-08T13:42:19;20.23;;;5.20;;
6442;SDS011;3254;47.372;8.512;2023-10-08T13:44:45;14.37;;;5.10;;
6442;SDS011;3254;47.372;8.512;2023-10-08T13:47:13;13.97;;;5.27;;
6442;SDS011;3254;47.372;8.512;2023-10-08T13:49:41;13.70;;;5.40;;
6442;SDS011;3254;47.372;8.512;2023-10-08T13:52:08;17.70;;;4.70;;
6442;SDS011;3254;47.372;8.512;2023-10-08T13:54:35;18.80;;;5.00;;
6442;SDS011;3254;47.372;8.512;2023-10-08T13:57:07;15.80;;;5.60;;
6442;SDS011;3254;47.372;8.512;2023-10-08T13:59:34;12.63;;;5.20;;
6442;SDS011;3254;47.372;8.512;2023-10-08T14:02:00;15.97;;;4.87;;
6442;SDS011;3254;47.372;8.512;2023-10-08T14:04:28;30.83;;;4.57;;
6442;SDS011;3254;47.372;8.512;2023-10-08T14:07:03;19.83;;;5.67;;
6442;SDS011;3254;47.372;8.512;2023-10-08T14:09:30;19.20;;;5.17;;
6442;SDS011;3254;47.372;8.512;2023-10-08T14:12:02;16.87;;;4.90;;
6442;SDS011;3254;47.372;8.512;2023-10-08T14:14:35;19.00;;;5.60;;
6442;SDS011;3254;47.372;8.512;2023-10-08T14:17:08;20.13;;;5.77;;
6442;SDS011;3254;47.372;8.512;2023-10-08T14:19:39;10.63;;;4.50;;
6442;SDS011;3254;47.372;8.512;2023-10-08T14:22:26;17.30;;;5.30;;
6442;SDS011;3254;47.372;8.512;2023-10-08T14:24:52;12.30;;;4.10;;
6442;SDS011;3254;47.372;8.512;2023-10-08T14:27:25;15.40;;;5.00;;
6442;SDS011;3254;47.372;8.512;2023-10-08T14:29:58;17.37;;;4.93;;
6442;SDS011;3254;47.372;8.512;2023-10-08T14:32:29;17.07;;;4.57;;
6442;SDS011;3254;47.372;8.512;2023-10-08T14:34:58;21.37;;;4.60;;
6442;SDS011;3254;47.372;8.512;2023-10-08T14:37:42;19.80;;;5.73;;
6442;SDS011;3254;47.372;8.512;2023-10-08T14:40:27;15.67;;;4.80;;
6442;SDS011;3254;47.372;8.512;2023-10-08T14:43:12;19.97;;;5.63;;
6442;SDS011;3254;47.372;8.512;2023-10-08T14:45:40;9.93;;;4.90;;
6442;SDS011;3254;47.372;8.512;2023-10-08T14:48:06;11.40;;;6.50;;
6442;SDS011;3254;47.372;8.512;2023-10-08T14:50:36;16.27;;;5.30;;
6442;SDS011;3254;47.372;8.512;2023-10-08T14:53:06;13.03;;;5.57;;
6442;SDS011;3254;47.372;8.512;2023-10-08T14:55:32;11.90;;;4.73;;
6442;SDS011;3254;47.372;8.512;2023-10-08T14:58:01;19.13;;;5.30;;
6442;SDS011;3254;47.372;8.512;2023-10-08T15:00:33;15.07;;;5.00;;
6442;SDS011;3254;47.372;8.512;2023-10-08T15:03:04;23.80;;;5.40;;
6442;SDS011;3254;47.372;8.512;2023-10-08T15:05:32;16.37;;;5.70;;
6442;SDS011;3254;47.372;8.512;2023-10-08T15:08:05;15.53;;;5.40;;
6442;SDS011;3254;47.372;8.512;2023-10-08T15:10:36;17.93;;;5.57;;
6442;SDS011;3254;47.372;8.512;2023-10-08T15:13:02;14.13;;;5.07;;
6442;SDS011;3254;47.372;8.512;2023-10-08T15:15:28;15.33;;;5.77;;
6442;SDS011;3254;47.372;8.512;2023-10-08T15:18:01;18.07;;;6.80;;
6442;SDS011;3254;47.372;8.512;2023-10-08T15:20:28;20.80;;;5.70;;
6442;SDS011;3254;47.372;8.512;2023-10-08T15:22:58;22.80;;;6.10;;
6442;SDS011;3254;47.372;8.512;2023-10-08T15:25:24;17.00;;;5.63;;
6442;SDS011;3254;47.372;8.512;2023-10-08T15:27:50;25.13;;;5.70;;
6442;SDS011;3254;47.372;8.512;2023-10-08T15:30:16;22.93;;;5.77;;
6442;SDS011;3254;47.372;8.512;2023-10-08T15:32:48;20.90;;;5.63;;
6442;SDS011;3254;47.372;8.512;2023-10-08T15:35:15;14.43;;;5.50;;
6442;SDS011;3254;47.372;8.512;2023-10-08T15:37:45;15.67;;;5.40;;
6442;SDS011;3254;47.372;8.512;2023-10-08T15:40:12;19.90;;;5.90;;
6442;SDS011;3254;47.372;8.512;2023-10-08T15:42:51;13.03;;;5.73;;
6442;SDS011;3254;47.372;8.512;2023-10-08T15:45:19;31.33;;;6.57;;
6442;SDS011;3254;47.372;8.512;2023-10-08T15:47:46;12.67;;;5.10;;
6442;SDS011;3254;47.372;8.512;2023-10-08T15:50:16;24.60;;;5.90;;
6442;SDS011;3254;47.372;8.512;2023-10-08T15:52:45;25.00;;;6.27;;